Time;durP1;ratioP1;P1;durP2;ratioP2;P2;SDS_P1;SDS_P2;PMS_P1;PMS_P2;Temp;Humidity;BMP_temperature;BMP_pressure;BME280_temperature;BME280_humidity;BME280_pressure;Samples;Min_cycle;Max_cycle;Signal;HPM_P1;HPM_P2
2022/05/04 05:00:12;;;;;;;18.13;11.93;;;13.30;97.20;;;;;;1713651;28;20533;-75
2022/05/04 05:01:03;;;;;;;15.43;13.65;;;13.30;97.20;;;;;;1713812;28;20233;-74
2022/05/04 05:01:55;;;;;;;14.07;12.57;;;13.30;97.20;;;;;;1713610;28;20646;-74
2022/05/04 05:02:45;;;;;;;11.27;10.07;;;13.30;97.20;;;;;;1713586;28;20210;-75
2022/05/04 05:03:37;;;;;;;10.70;9.60;;;13.20;97.20;;;;;;1713887;28;20206;-75
2022/05/04 05:04:28;;;;;;;10.23;9.32;;;13.20;97.20;;;;;;1713761;28;20264;-74
2022/05/04 05:05:20;;;;;;;9.63;8.73;;;13.20;97.20;;;;;;1713838;28;20213;-74
2022/05/04 05:06:12;;;;;;;9.27;8.38;;;13.20;97.20;;;;;;1713768;28;20227;-74
2022/05/04 05:07:03;;;;;;;9.70;8.70;;;13.20;97.20;;;;;;1713769;28;20586;-74
2022/05/04 05:07:55;;;;;;;8.85;8.02;;;13.20;97.20;;;;;;1713867;28;20208;-74
2022/05/04 05:08:48;;;;;;;8.60;7.80;;;13.30;97.20;;;;;;1713527;28;20238;-74
2022/05/04 05:09:39;;;;;;;9.43;8.45;;;13.30;97.20;;;;;;1713734;28;20201;-75
2022/05/04 05:10:30;;;;;;;10.73;8.85;;;13.30;97.20;;;;;;1713748;28;20253;-74
2022/05/04 05:11:22;;;;;;;9.10;8.20;;;13.30;97.20;;;;;;1713831;28;20212;-74
2022/05/04 05:12:14;;;;;;;8.55;7.65;;;13.30;97.20;;;;;;1714433;28;20672;-74
2022/05/04 05:13:06;;;;;;;9.40;8.50;;;13.30;97.20;;;;;;1715011;28;20572;-74
2022/05/04 05:16:19;;;;;;;10.30;8.77;;;13.40;97.20;;;;;;1715107;28;20260;-74
2022/05/04 05:17:11;;;;;;;8.10;7.40;;;13.40;97.20;;;;;;1714993;28;20256;-74
2022/05/04 05:18:02;;;;;;;8.57;7.85;;;13.50;97.20;;;;;;1714770;28;20295;-74
2022/05/04 05:18:54;;;;;;;8.83;7.93;;;13.50;97.20;;;;;;1715088;28;20197;-74
2022/05/04 05:19:44;;;;;;;9.32;8.23;;;13.50;97.20;;;;;;1714906;28;20692;-74
2022/05/04 05:20:36;;;;;;;9.60;8.37;;;13.50;97.20;;;;;;1715011;28;20594;-74
2022/05/04 05:21:28;;;;;;;8.90;8.10;;;13.50;97.20;;;;;;1714944;28;20213;-74
2022/05/04 05:22:18;;;;;;;9.25;8.32;;;13.50;97.20;;;;;;1714703;28;20621;-74
2022/05/04 05:23:10;;;;;;;8.33;7.63;;;13.50;97.20;;;;;;1715057;28;20295;-74
2022/05/04 05:24:01;;;;;;;7.65;7.05;;;13.50;97.20;;;;;;1714725;28;20240;-74
2022/05/04 05:24:52;;;;;;;8.00;7.23;;;13.50;97.20;;;;;;1715007;28;20198;-74
2022/05/04 05:25:44;;;;;;;6.97;6.38;;;13.60;97.20;;;;;;1714981;28;20210;-74
2022/05/04 05:26:35;;;;;;;7.60;6.90;;;13.60;97.20;;;;;;1714919;28;20248;-74
2022/05/04 05:27:29;;;;;;;7.10;6.43;;;13.60;97.20;;;;;;1715013;28;20205;-73
2022/05/04 05:28:20;;;;;;;7.30;6.60;;;13.60;97.20;;;;;;1714611;28;20240;-74
2022/05/04 05:29:12;;;;;;;6.83;6.30;;;13.60;97.20;;;;;;1714888;28;20672;-74
2022/05/04 05:30:03;;;;;;;8.32;7.40;;;13.60;97.20;;;;;;1714887;28;20963;-74
2022/05/04 05:30:56;;;;;;;6.60;6.10;;;13.60;97.20;;;;;;1715000;28;20204;-73
2022/05/04 05:31:47;;;;;;;6.85;6.35;;;13.60;97.20;;;;;;1714979;28;20236;-74
2022/05/04 05:32:39;;;;;;;7.17;6.50;;;13.60;97.20;;;;;;1714754;28;20194;-74
2022/05/04 05:33:30;;;;;;;7.18;6.55;;;13.60;97.20;;;;;;1714924;28;20686;-73
2022/05/04 05:34:22;;;;;;;6.33;5.83;;;13.70;97.20;;;;;;1714920;28;20622;-74
2022/05/04 05:35:12;;;;;;;6.40;5.82;;;13.70;97.20;;;;;;1714952;28;20665;-74
2022/05/04 05:36:05;;;;;;;6.43;5.93;;;13.70;97.20;;;;;;1714887;28;20617;-74
2022/05/04 05:36:55;;;;;;;6.40;5.95;;;13.70;97.20;;;;;;1714895;28;20210;-74
2022/05/04 05:37:47;;;;;;;6.63;6.13;;;13.70;97.20;;;;;;1714850;28;20201;-74
2022/05/04 05:38:39;;;;;;;6.60;6.00;;;13.80;97.20;;;;;;1714611;28;20206;-74
2022/05/04 05:39:29;;;;;;;7.57;5.95;;;13.80;97.20;;;;;;1714849;28;20205;-74
2022/05/04 05:40:21;;;;;;;6.40;5.90;;;13.80;97.20;;;;;;1714921;28;20201;-74
2022/05/04 05:41:12;;;;;;;7.20;6.60;;;13.80;97.20;;;;;;1714839;28;20206;-74
2022/05/04 05:42:04;;;;;;;7.10;6.33;;;13.80;97.20;;;;;;1714614;28;20202;-74
2022/05/04 05:42:56;;;;;;;7.20;6.50;;;13.80;97.20;;;;;;1714626;28;20198;-74
2022/05/04 05:43:47;;;;;;;7.00;6.45;;;13.80;97.20;;;;;;1714849;28;20244;-74
2022/05/04 05:44:39;;;;;;;7.15;6.50;;;13.80;97.20;;;;;;1714591;28;20708;-73
2022/05/04 05:45:30;;;;;;;6.45;5.80;;;13.80;97.20;;;;;;1714872;28;20253;-74
2022/05/04 05:46:23;;;;;;;7.27;6.57;;;13.80;97.20;;;;;;1714852;28;20198;-73
2022/05/04 05:47:13;;;;;;;6.22;5.45;;;13.80;97.20;;;;;;1714915;28;20201;-73
2022/05/04 05:48:06;;;;;;;7.27;5.77;;;13.80;97.20;;;;;;1714489;28;20205;-73
2022/05/04 05:48:56;;;;;;;7.00;6.45;;;13.90;97.20;;;;;;1714846;28;20198;-72
2022/05/04 05:49:48;;;;;;;6.57;6.03;;;13.90;97.20;;;;;;1714849;28;20202;-73
2022/05/04 05:50:40;;;;;;;6.55;6.05;;;13.90;97.20;;;;;;1714727;28;20304;-73
2022/05/04 05:51:30;;;;;;;6.78;6.18;;;14.00;97.20;;;;;;1714887;28;20233;-73
2022/05/04 05:52:22;;;;;;;7.27;6.33;;;14.00;97.20;;;;;;1714516;28;20204;-73
2022/05/04 05:53:14;;;;;;;7.40;6.10;;;14.00;97.20;;;;;;1714854;28;20688;-73
2022/05/04 05:54:06;;;;;;;7.05;6.35;;;14.00;97.20;;;;;;1714747;28;20253;-73
2022/05/04 05:54:58;;;;;;;8.00;6.90;;;14.00;97.20;;;;;;1714848;28;20688;-72
2022/05/04 05:55:50;;;;;;;10.30;7.10;;;14.10;97.20;;;;;;1714840;28;20233;-74
2022/05/04 05:56:40;;;;;;;13.52;7.65;;;14.10;97.20;;;;;;1714777;28;20278;-73
2022/05/04 05:57:32;;;;;;;8.23;7.40;;;14.10;97.20;;;;;;1714788;28;20202;-73
2022/05/04 05:58:23;;;;;;;7.55;6.85;;;14.20;97.20;;;;;;1714432;28;20229;-74
2022/05/04 05:59:15;;;;;;;8.73;7.40;;;14.20;97.20;;;;;;1714724;28;20237;-74
2022/05/04 06:00:07;;;;;;;7.95;7.15;;;14.20;97.20;;;;;;1714782;28;20669;-76
2022/05/04 06:00:59;;;;;;;9.88;7.13;;;14.20;97.20;;;;;;1714841;28;20257;-73
2022/05/04 06:01:51;;;;;;;7.97;7.32;;;14.20;97.20;;;;;;1714889;28;20585;-74
2022/05/04 06:02:44;;;;;;;7.95;7.15;;;14.30;97.20;;;;;;1714481;28;20543;-73
2022/05/04 06:03:35;;;;;;;8.73;7.82;;;14.30;97.20;;;;;;1714865;28;20871;-72
2022/05/04 06:04:26;;;;;;;8.07;7.27;;;14.30;97.20;;;;;;1714507;28;20620;-73
2022/05/04 06:05:17;;;;;;;9.25;7.97;;;14.30;97.20;;;;;;1714746;28;20206;-73
2022/05/04 06:06:09;;;;;;;8.37;6.70;;;14.30;97.20;;;;;;1714849;28;20206;-73
2022/05/04 06:07:00;;;;;;;7.10;6.50;;;14.40;97.20;;;;;;1714783;28;20206;-73
2022/05/04 06:07:51;;;;;;;10.37;7.80;;;14.40;97.20;;;;;;1714746;28;20202;-73
2022/05/04 06:08:42;;;;;;;7.40;6.70;;;14.40;97.20;;;;;;1714398;28;20206;-74
2022/05/04 06:09:34;;;;;;;7.90;7.20;;;14.40;97.20;;;;;;1714785;28;20212;-73
2022/05/04 06:10:24;;;;;;;7.60;6.82;;;14.40;97.20;;;;;;1714572;28;20213;-73
2022/05/04 06:11:16;;;;;;;11.20;7.60;;;14.40;97.20;;;;;;1714658;28;20210;-75
2022/05/04 06:12:08;;;;;;;8.95;8.05;;;14.50;97.20;;;;;;1714447;28;20241;-76
2022/05/04 06:13:00;;;;;;;9.13;7.70;;;14.50;97.20;;;;;;1714635;28;20198;-73
2022/05/04 06:13:51;;;;;;;12.80;7.15;;;14.50;97.20;;;;;;1714822;28;20202;-74
2022/05/04 06:14:43;;;;;;;8.63;7.20;;;14.50;97.20;;;;;;1714572;28;20229;-74
2022/05/04 06:15:34;;;;;;;8.02;7.32;;;14.50;97.20;;;;;;1714783;28;20668;-74
2022/05/04 06:16:25;;;;;;;8.47;7.57;;;14.50;97.20;;;;;;1714633;28;20577;-74
2022/05/04 06:17:17;;;;;;;8.32;7.53;;;14.50;97.20;;;;;;1714619;28;20484;-73
2022/05/04 06:18:09;;;;;;;8.98;7.00;;;14.60;97.20;;;;;;1714295;28;20268;-74
2022/05/04 06:19:01;;;;;;;8.80;7.32;;;14.60;97.20;;;;;;1714653;28;20259;-74
2022/05/04 06:19:52;;;;;;;7.43;6.72;;;14.60;97.20;;;;;;1714623;28;20197;-74
2022/05/04 06:20:43;;;;;;;10.60;7.07;;;14.60;97.20;;;;;;1714601;28;20339;-74
2022/05/04 06:21:35;;;;;;;8.65;7.43;;;14.60;97.20;;;;;;1714632;28;20217;-74
2022/05/04 06:22:26;;;;;;;8.15;7.43;;;14.70;97.20;;;;;;1713901;28;20213;-74
2022/05/04 06:23:17;;;;;;;9.20;7.23;;;14.70;97.20;;;;;;1713243;28;20202;-74
2022/05/04 06:24:08;;;;;;;13.15;7.80;;;14.70;97.20;;;;;;1713753;28;20289;-74
2022/05/04 06:25:00;;;;;;;10.10;8.23;;;14.70;97.20;;;;;;1714556;28;20202;-74
2022/05/04 06:25:51;;;;;;;10.27;8.15;;;14.70;97.20;;;;;;1714671;28;20445;-74
2022/05/04 06:26:42;;;;;;;12.00;7.80;;;14.80;97.20;;;;;;1714579;28;20197;-74
2022/05/04 06:27:33;;;;;;;12.10;8.05;;;14.80;97.20;;;;;;1714548;28;20240;-74
2022/05/04 06:28:25;;;;;;;19.30;8.17;;;14.80;97.20;;;;;;1714186;28;20205;-73
2022/05/04 06:29:15;;;;;;;11.63;7.50;;;14.80;97.20;;;;;;1714499;28;20692;-74
2022/05/04 06:34:43;;;;;;;6.68;6.18;;;14.90;97.20;;;;;;1711792;28;20800;-74
2022/05/04 06:35:33;;;;;;;6.00;5.45;;;14.90;97.20;;;;;;1714640;28;20214;-74
2022/05/04 06:36:25;;;;;;;6.03;5.53;;;14.90;97.20;;;;;;1714568;28;20288;-73
2022/05/04 06:37:16;;;;;;;6.80;6.20;;;14.90;97.20;;;;;;1714603;28;20241;-74
2022/05/04 06:38:07;;;;;;;5.97;5.47;;;14.90;97.20;;;;;;1714288;28;20209;-74
2022/05/04 06:38:58;;;;;;;6.30;5.80;;;14.90;97.20;;;;;;1714601;28;20233;-74
2022/05/04 06:39:50;;;;;;;6.33;5.83;;;14.90;97.20;;;;;;1714435;28;20683;-74
2022/05/04 06:40:40;;;;;;;6.13;5.72;;;14.90;97.20;;;;;;1714258;28;20681;-74
2022/05/04 06:41:33;;;;;;;6.10;5.60;;;14.90;97.20;;;;;;1714469;28;20604;-74
2022/05/04 06:42:23;;;;;;;6.90;6.13;;;14.90;97.20;;;;;;1714263;28;20198;-76
2022/05/04 06:43:15;;;;;;;6.63;6.13;;;14.90;97.20;;;;;;1714354;28;20206;-74
2022/05/04 06:44:06;;;;;;;6.65;6.05;;;14.90;97.20;;;;;;1714439;28;20237;-74
2022/05/04 06:44:58;;;;;;;6.53;5.93;;;14.90;97.20;;;;;;1714499;28;20197;-74
2022/05/04 06:45:49;;;;;;;10.05;5.60;;;14.90;97.20;;;;;;1714554;28;20611;-74
2022/05/04 06:46:41;;;;;;;10.43;6.38;;;14.90;97.20;;;;;;1714500;28;20264;-74
2022/05/04 06:47:34;;;;;;;8.65;6.05;;;15.00;97.20;;;;;;1714424;28;20237;-74
2022/05/04 06:48:26;;;;;;;6.25;5.65;;;15.00;97.20;;;;;;1714137;28;20206;-74
2022/05/04 06:49:16;;;;;;;8.95;5.50;;;15.00;97.20;;;;;;1714348;28;20202;-74
2022/05/04 06:50:10;;;;;;;5.23;4.83;;;15.00;97.20;;;;;;1714208;28;20288;-74
2022/05/04 06:51:00;;;;;;;6.20;5.80;;;15.00;97.20;;;;;;1714385;28;20233;-74
2022/05/04 06:51:52;;;;;;;5.90;5.50;;;15.00;97.20;;;;;;1714442;28;20198;-74
2022/05/04 06:52:43;;;;;;;7.93;6.72;;;15.00;97.20;;;;;;1714378;28;20198;-74
2022/05/04 06:53:35;;;;;;;6.20;5.60;;;15.00;97.20;;;;;;1714403;28;20244;-74
2022/05/04 06:54:26;;;;;;;5.57;5.07;;;15.00;97.20;;;;;;1714354;28;20236;-74
2022/05/04 06:55:18;;;;;;;9.53;5.57;;;15.00;97.20;;;;;;1714417;28;20198;-74
2022/05/04 06:56:10;;;;;;;6.45;5.95;;;15.00;97.20;;;;;;1714391;28;20605;-74
2022/05/04 06:57:02;;;;;;;6.45;5.65;;;15.10;97.20;;;;;;1714366;28;20205;-74
2022/05/04 06:57:52;;;;;;;6.50;5.90;;;15.10;97.20;;;;;;1714479;28;20661;-73
2022/05/04 06:58:45;;;;;;;6.93;6.23;;;15.10;97.20;;;;;;1713999;28;20565;-74
2022/05/04 06:59:37;;;;;;;7.55;5.65;;;15.20;97.20;;;;;;1714277;28;20666;-76
2022/05/04 07:00:28;;;;;;;6.05;5.60;;;15.20;97.20;;;;;;1714111;28;20213;-74
2022/05/04 07:01:19;;;;;;;6.23;5.73;;;15.20;97.20;;;;;;1714404;28;20212;-74
2022/05/04 07:02:10;;;;;;;6.82;5.70;;;15.30;97.20;;;;;;1714376;28;20708;-74
2022/05/04 07:03:03;;;;;;;6.20;5.70;;;15.30;97.20;;;;;;1714356;28;20669;-74
2022/05/04 07:03:54;;;;;;;7.10;6.40;;;15.30;97.20;;;;;;1714417;28;20685;-75
2022/05/04 07:04:46;;;;;;;6.43;5.75;;;15.40;97.20;;;;;;1714266;28;20214;-74
2022/05/04 07:05:38;;;;;;;5.93;5.30;;;15.40;97.20;;;;;;1714360;28;20209;-74
2022/05/04 07:06:29;;;;;;;6.15;5.75;;;15.40;97.20;;;;;;1714416;28;20202;-74
2022/05/04 07:07:20;;;;;;;7.45;6.15;;;15.50;97.20;;;;;;1714320;28;20233;-74
2022/05/04 07:08:12;;;;;;;6.30;5.80;;;15.50;97.20;;;;;;1714068;28;20205;-74
2022/05/04 07:09:03;;;;;;;6.07;5.57;;;15.50;97.20;;;;;;1714376;28;20236;-74
2022/05/04 07:09:54;;;;;;;5.90;5.50;;;15.50;97.20;;;;;;1714332;28;20205;-73
2022/05/04 07:10:45;;;;;;;6.63;6.03;;;15.60;97.20;;;;;;1713970;28;20582;-74
2022/05/04 07:11:37;;;;;;;6.10;5.60;;;15.60;97.20;;;;;;1714257;28;20253;-74
2022/05/04 07:12:27;;;;;;;5.47;4.97;;;15.60;97.20;;;;;;1714385;28;20213;-74
2022/05/04 07:13:19;;;;;;;5.43;4.93;;;15.60;97.20;;;;;;1714287;28;20285;-76
2022/05/04 07:14:10;;;;;;;6.25;5.75;;;15.70;97.20;;;;;;1714127;28;20241;-74
2022/05/04 07:15:03;;;;;;;6.73;6.13;;;15.70;97.20;;;;;;1714290;28;20217;-74
2022/05/04 07:15:55;;;;;;;6.30;5.75;;;15.70;97.20;;;;;;1714312;28;20202;-74
2022/05/04 07:16:47;;;;;;;6.70;6.10;;;15.70;97.20;;;;;;1714232;28;20204;-73
2022/05/04 07:17:39;;;;;;;6.68;6.00;;;15.80;97.20;;;;;;1714287;28;20205;-74
2022/05/04 07:18:32;;;;;;;5.75;5.28;;;15.80;97.20;;;;;;1713916;28;20265;-74
2022/05/04 07:19:22;;;;;;;6.18;5.22;;;15.80;97.20;;;;;;1714160;28;20240;-74
2022/05/04 07:20:14;;;;;;;6.30;5.80;;;15.80;97.20;;;;;;1714093;28;20201;-74
2022/05/04 07:21:05;;;;;;;5.22;4.80;;;15.90;97.20;;;;;;1714231;28;20648;-74
2022/05/04 07:21:57;;;;;;;6.33;5.10;;;15.90;97.20;;;;;;1714242;28;20558;-74
2022/05/04 07:22:47;;;;;;;6.13;5.63;;;15.90;97.20;;;;;;1714206;28;20201;-74
2022/05/04 07:23:39;;;;;;;6.10;5.50;;;15.90;97.20;;;;;;1714291;28;20208;-74
2022/05/04 07:24:30;;;;;;;5.60;5.15;;;15.90;97.20;;;;;;1713965;28;20310;-74
2022/05/04 07:25:21;;;;;;;5.53;5.03;;;15.90;97.20;;;;;;1714130;28;20285;-74
2022/05/04 07:26:12;;;;;;;6.18;5.68;;;16.00;97.20;;;;;;1714219;28;20481;-74
2022/05/04 07:27:05;;;;;;;6.17;5.67;;;16.00;97.20;;;;;;1714222;28;20228;-74
2022/05/04 07:27:56;;;;;;;5.82;5.22;;;16.00;97.20;;;;;;1714236;28;20201;-74
2022/05/04 07:28:48;;;;;;;5.90;5.40;;;16.00;97.20;;;;;;1713905;28;20202;-74
2022/05/04 07:29:39;;;;;;;5.65;5.25;;;16.00;97.20;;;;;;1714097;28;20244;-74
2022/05/04 07:30:30;;;;;;;5.50;4.87;;;16.00;97.20;;;;;;1714005;28;20209;-74
2022/05/04 07:31:21;;;;;;;5.57;5.05;;;16.00;97.20;;;;;;1714259;28;20232;-74
2022/05/04 07:32:13;;;;;;;5.20;4.70;;;15.90;97.20;;;;;;1714166;28;20297;-74
2022/05/04 07:33:04;;;;;;;4.85;4.30;;;15.90;97.20;;;;;;1714293;28;20257;-74
2022/05/04 07:33:57;;;;;;;4.83;4.30;;;15.80;97.20;;;;;;1714248;28;20210;-73
2022/05/04 07:34:48;;;;;;;7.28;5.38;;;15.80;97.20;;;;;;1713995;28;20492;-74
2022/05/04 07:35:39;;;;;;;5.50;5.00;;;15.80;97.20;;;;;;1714257;28;20676;-74
2022/05/04 07:36:30;;;;;;;5.60;4.75;;;15.80;97.20;;;;;;1714208;28;20677;-74
2022/05/04 07:37:22;;;;;;;5.30;4.90;;;15.80;97.20;;;;;;1714250;28;20264;-74
2022/05/04 07:38:13;;;;;;;5.80;5.13;;;15.80;97.20;;;;;;1713837;28;20237;-74
2022/05/04 07:39:05;;;;;;;5.10;4.70;;;15.70;97.20;;;;;;1714097;28;20202;-74
2022/05/04 07:42:24;;;;;;;4.65;4.35;;;15.70;97.20;;;;;;1707656;29;20894;-75
2022/05/04 07:43:15;;;;;;;5.40;5.00;;;15.70;97.20;;;;;;1707505;28;20223;-75
2022/05/04 07:44:06;;;;;;;5.60;4.60;;;15.60;97.20;;;;;;1707408;28;20618;-75
2022/05/04 07:45:00;;;;;;;6.07;5.33;;;15.60;97.20;;;;;;1707482;28;20584;-74
2022/05/04 07:45:51;;;;;;;5.10;4.60;;;15.60;97.20;;;;;;1713867;28;20447;-73
2022/05/04 07:46:43;;;;;;;4.60;4.30;;;15.60;97.20;;;;;;1714238;28;20216;-73
2022/05/04 07:47:35;;;;;;;5.85;4.50;;;15.60;97.20;;;;;;1714170;28;20538;-74
2022/05/04 07:48:27;;;;;;;5.03;4.35;;;15.50;97.20;;;;;;1713975;28;20225;-74
2022/05/04 07:49:19;;;;;;;4.65;4.20;;;15.50;97.20;;;;;;1714135;28;20289;-76
2022/05/04 07:50:12;;;;;;;5.75;4.70;;;15.50;97.20;;;;;;1714161;28;20205;-74
2022/05/04 07:51:04;;;;;;;5.00;4.55;;;15.50;97.20;;;;;;1713982;28;20214;-73
2022/05/04 07:51:55;;;;;;;5.55;4.88;;;15.50;97.20;;;;;;1714121;28;20205;-74
2022/05/04 07:52:48;;;;;;;5.83;4.50;;;15.50;97.20;;;;;;1714131;28;20281;-73
2022/05/04 07:53:39;;;;;;;5.68;4.95;;;15.40;97.20;;;;;;1714083;28;20681;-73
2022/05/04 07:54:30;;;;;;;6.00;5.50;;;15.40;97.20;;;;;;1714042;28;20746;-74
2022/05/04 07:55:21;;;;;;;5.20;4.65;;;15.40;97.20;;;;;;1714047;28;20224;-74
2022/05/04 07:56:13;;;;;;;5.47;4.97;;;15.40;97.20;;;;;;1714220;28;20220;-74
2022/05/04 07:57:04;;;;;;;5.78;5.28;;;15.40;97.20;;;;;;1714019;28;20480;-74
2022/05/04 07:57:58;;;;;;;5.88;5.22;;;15.40;97.20;;;;;;1714050;28;20208;-73
2022/05/04 07:58:49;;;;;;;6.38;5.35;;;15.30;97.20;;;;;;1713746;28;20209;-73
2022/05/04 07:59:40;;;;;;;5.70;5.20;;;15.30;97.20;;;;;;1713951;28;20241;-74
2022/05/04 08:05:08;;;;;;;5.70;5.25;;;15.20;97.20;;;;;;1711321;28;20201;-75
2022/05/04 08:06:00;;;;;;;7.25;5.80;;;15.30;97.20;;;;;;1713969;28;20209;-75
2022/05/04 08:06:51;;;;;;;6.28;5.72;;;15.30;97.20;;;;;;1714063;28;20233;-75
2022/05/04 08:07:43;;;;;;;5.40;5.00;;;15.30;97.20;;;;;;1714029;28;20200;-73
2022/05/04 08:08:34;;;;;;;5.13;4.82;;;15.30;97.20;;;;;;1713763;28;20234;-73
2022/05/04 08:09:26;;;;;;;5.03;4.65;;;15.40;97.20;;;;;;1713915;28;20205;-73
2022/05/04 08:10:19;;;;;;;5.53;5.13;;;15.40;97.20;;;;;;1713797;28;20208;-73
2022/05/04 08:11:09;;;;;;;5.57;5.07;;;15.40;97.20;;;;;;1707431;28;20210;-73
2022/05/04 08:12:02;;;;;;;7.80;5.17;;;15.40;97.20;;;;;;1707297;28;20236;-74
2022/05/04 08:12:53;;;;;;;5.57;5.03;;;15.50;97.20;;;;;;1707456;28;20218;-74
2022/05/04 08:13:45;;;;;;;5.60;5.10;;;15.50;97.20;;;;;;1707337;28;20657;-73
2022/05/04 08:14:36;;;;;;;8.63;5.65;;;15.50;97.20;;;;;;1709503;28;20233;-73
2022/05/04 08:15:30;;;;;;;6.13;5.53;;;15.60;97.20;;;;;;1713943;28;20237;-74
2022/05/04 08:16:21;;;;;;;5.30;4.90;;;15.60;97.20;;;;;;1713919;28;20206;-73
2022/05/04 08:17:12;;;;;;;4.75;4.38;;;15.60;97.20;;;;;;1714089;28;20229;-73
2022/05/04 08:18:04;;;;;;;6.23;5.63;;;15.60;97.20;;;;;;1713678;28;20212;-73
2022/05/04 08:18:55;;;;;;;5.50;5.00;;;15.60;97.20;;;;;;1713994;28;20484;-74
2022/05/04 08:19:47;;;;;;;4.93;4.40;;;15.60;97.20;;;;;;1713989;28;20198;-74
2022/05/04 08:20:39;;;;;;;6.25;4.82;;;15.60;97.20;;;;;;1713661;28;20210;-76
2022/05/04 08:21:31;;;;;;;5.22;4.82;;;15.60;97.20;;;;;;1713950;28;20292;-73
2022/05/04 08:22:22;;;;;;;4.82;4.40;;;15.60;97.20;;;;;;1714025;28;20763;-74
2022/05/04 08:23:14;;;;;;;5.10;4.60;;;15.60;97.20;;;;;;1714017;28;20261;-74
2022/05/04 08:24:06;;;;;;;4.40;4.00;;;15.60;97.20;;;;;;1713850;28;20202;-74
2022/05/04 08:24:59;;;;;;;5.07;4.68;;;15.60;97.20;;;;;;1713989;28;20687;-74
2022/05/04 08:25:50;;;;;;;5.07;4.68;;;15.70;97.20;;;;;;1713911;28;20216;-74
2022/05/04 08:26:42;;;;;;;6.40;5.47;;;15.70;97.20;;;;;;1714010;28;20201;-74
2022/05/04 08:27:33;;;;;;;5.43;4.65;;;15.80;97.20;;;;;;1714024;28;20445;-75
2022/05/04 08:28:24;;;;;;;6.93;4.77;;;15.80;97.20;;;;;;1713574;28;20201;-74
2022/05/04 08:29:15;;;;;;;6.53;5.47;;;15.90;97.20;;;;;;1713999;28;20982;-74
2022/05/04 08:30:08;;;;;;;5.60;5.00;;;15.90;97.20;;;;;;1714032;28;20581;-73
2022/05/04 08:30:59;;;;;;;5.57;5.18;;;16.00;97.20;;;;;;1713678;28;20469;-74
2022/05/04 08:31:51;;;;;;;6.23;5.73;;;16.00;97.20;;;;;;1713879;28;20240;-74
2022/05/04 08:32:43;;;;;;;5.75;5.30;;;16.10;97.20;;;;;;1713898;28;20205;-74
2022/05/04 08:33:35;;;;;;;5.40;4.90;;;16.10;97.20;;;;;;1713963;28;20672;-72
2022/05/04 08:34:27;;;;;;;6.20;5.70;;;16.20;97.20;;;;;;1713784;28;20225;-73
2022/05/04 08:35:19;;;;;;;6.05;5.45;;;16.30;97.20;;;;;;1713952;28;20209;-73
2022/05/04 08:36:11;;;;;;;6.25;5.32;;;16.30;97.20;;;;;;1714021;28;20238;-73
2022/05/04 08:37:03;;;;;;;5.55;5.05;;;16.40;97.20;;;;;;1713923;28;20630;-74
2022/05/04 08:37:54;;;;;;;6.28;5.43;;;16.50;97.20;;;;;;1713978;28;20202;-72
2022/05/04 08:38:45;;;;;;;6.13;5.72;;;16.60;97.20;;;;;;1713472;28;20687;-74
2022/05/04 08:39:37;;;;;;;6.33;5.70;;;16.70;97.20;;;;;;1713930;28;20206;-72
2022/05/04 08:40:29;;;;;;;7.13;6.43;;;16.80;97.20;;;;;;1713827;28;20688;-74
2022/05/04 08:41:22;;;;;;;7.15;6.65;;;16.90;97.20;;;;;;1713987;28;20680;-73
2022/05/04 08:42:14;;;;;;;6.53;5.93;;;17.00;97.20;;;;;;1713975;28;20237;-73
2022/05/04 08:43:07;;;;;;;6.65;6.05;;;17.10;97.20;;;;;;1713001;28;20264;-75
2022/05/04 08:43:59;;;;;;;7.15;6.55;;;17.30;97.20;;;;;;1712575;28;20210;-73
2022/05/04 08:44:55;;;;;;;7.13;6.38;;;17.40;97.20;;;;;;1715087;28;20612;-73
2022/05/04 08:45:51;;;;;;;7.60;6.90;;;17.50;97.20;;;;;;1715911;28;20310;-73
2022/05/04 08:46:44;;;;;;;6.68;5.95;;;17.60;97.20;;;;;;1720375;28;20252;-73
2022/05/04 08:47:37;;;;;;;8.18;6.13;;;17.80;97.20;;;;;;1715274;28;20229;-73
2022/05/04 08:48:32;;;;;;;7.88;6.85;;;18.00;97.20;;;;;;1721146;28;20609;-72
2022/05/04 08:49:23;;;;;;;7.53;5.75;;;18.10;97.20;;;;;;1720042;28;20830;-73
2022/05/04 08:50:17;;;;;;;6.72;6.10;;;18.20;97.20;;;;;;1714964;28;20880;-73
2022/05/04 08:51:10;;;;;;;6.93;6.32;;;18.30;97.20;;;;;;1715178;28;20263;-73
2022/05/04 08:52:02;;;;;;;7.35;6.65;;;18.40;97.20;;;;;;1715080;28;20705;-73
2022/05/04 08:52:55;;;;;;;8.43;6.72;;;18.50;97.20;;;;;;1715182;28;20209;-72
2022/05/04 08:53:47;;;;;;;6.90;6.30;;;18.60;97.20;;;;;;1715122;28;20661;-73
2022/05/04 08:54:37;;;;;;;7.63;6.20;;;18.80;97.20;;;;;;1715111;28;20221;-73
2022/05/04 08:55:29;;;;;;;6.60;6.10;;;18.90;97.20;;;;;;1715078;28;20208;-73
2022/05/04 08:56:21;;;;;;;6.43;5.90;;;19.10;97.20;;;;;;1715139;28;20206;-73
2022/05/04 08:57:12;;;;;;;6.10;5.53;;;19.20;97.20;;;;;;1715209;28;20205;-73
2022/05/04 08:58:03;;;;;;;6.93;6.33;;;19.40;97.20;;;;;;1714862;28;20212;-73
2022/05/04 08:58:54;;;;;;;8.35;6.07;;;19.50;97.20;;;;;;1715197;28;20995;-73
2022/05/04 08:59:46;;;;;;;6.97;6.37;;;19.70;97.20;;;;;;1715064;28;20599;-72
2022/05/04 09:00:37;;;;;;;7.85;6.28;;;19.80;97.20;;;;;;1715064;28;20198;-72
2022/05/04 09:01:29;;;;;;;7.30;6.60;;;19.90;97.20;;;;;;1715129;28;20285;-74
2022/05/04 09:02:19;;;;;;;7.47;5.90;;;20.10;97.20;;;;;;1715138;28;20671;-74
2022/05/04 09:03:11;;;;;;;6.90;5.93;;;20.20;97.20;;;;;;1715130;28;20771;-73
2022/05/04 09:04:02;;;;;;;6.80;6.05;;;20.30;97.20;;;;;;1714948;28;20256;-73
2022/05/04 09:04:54;;;;;;;6.20;5.70;;;20.40;97.20;;;;;;1715208;28;20252;-73
2022/05/04 09:05:47;;;;;;;6.05;5.45;;;20.50;97.20;;;;;;1715071;28;20972;-73
2022/05/04 09:06:43;;;;;;;5.53;5.00;;;20.50;97.20;;;;;;1715109;28;20689;-73
2022/05/04 09:07:35;;;;;;;5.95;5.45;;;20.50;97.20;;;;;;1715114;28;20217;-73
2022/05/04 09:08:27;;;;;;;7.50;5.30;;;20.60;97.20;;;;;;1714689;28;20309;-73
2022/05/04 09:09:17;;;;;;;6.25;5.72;;;20.70;97.20;;;;;;1714978;28;20210;-74
2022/05/04 09:10:16;;;;;;;6.77;6.17;;;20.80;97.20;;;;;;1714790;28;20206;-74
2022/05/04 09:11:16;;;;;;;6.35;5.85;;;20.80;97.20;;;;;;1715066;28;20209;-73
2022/05/04 09:12:09;;;;;;;6.30;5.70;;;20.90;97.20;;;;;;1715090;28;20226;-75
2022/05/04 09:13:00;;;;;;;6.57;5.97;;;21.00;97.20;;;;;;1715039;28;20253;-73
2022/05/04 09:13:52;;;;;;;5.60;5.10;;;21.00;97.20;;;;;;1714511;28;20674;-74
2022/05/04 09:14:45;;;;;;;6.53;6.03;;;21.10;97.20;;;;;;1714800;28;20226;-73
2022/05/04 09:15:40;;;;;;;6.05;5.45;;;21.10;97.20;;;;;;1715065;28;20229;-73
2022/05/04 09:16:33;;;;;;;6.20;5.60;;;21.10;97.20;;;;;;1715020;28;20273;-73
2022/05/04 09:17:24;;;;;;;6.22;5.63;;;21.20;97.20;;;;;;1714998;28;20673;-74
2022/05/04 09:18:16;;;;;;;6.97;6.10;;;21.20;97.20;;;;;;1714626;28;20558;-74
2022/05/04 09:19:09;;;;;;;10.43;6.95;;;21.30;97.20;;;;;;1714951;28;20206;-73
2022/05/04 09:21:21;;;;;;;8.27;7.47;;;21.30;97.20;;;;;;1715103;28;20201;-73
2022/05/04 09:22:16;;;;;;;7.18;6.18;;;21.30;97.20;;;;;;1714527;28;20657;-73
2022/05/04 09:23:10;;;;;;;7.63;7.03;;;21.30;97.20;;;;;;1714941;28;20260;-75
2022/05/04 09:24:02;;;;;;;7.72;6.93;;;21.30;97.20;;;;;;1714884;28;20213;-73
2022/05/04 09:24:56;;;;;;;7.63;6.80;;;21.30;97.20;;;;;;1715074;28;20229;-73
2022/05/04 09:25:52;;;;;;;7.50;6.82;;;21.20;97.20;;;;;;1714932;28;20264;-74
2022/05/04 09:26:45;;;;;;;7.80;7.00;;;21.20;97.20;;;;;;1714946;28;20201;-74
2022/05/04 09:27:37;;;;;;;6.95;6.35;;;21.20;97.20;;;;;;1714960;28;20271;-73
2022/05/04 09:28:30;;;;;;;8.13;6.40;;;21.10;97.20;;;;;;1714585;28;20209;-74
2022/05/04 09:29:32;;;;;;;6.45;5.85;;;21.10;97.20;;;;;;1714856;28;20206;-74
2022/05/04 09:30:26;;;;;;;7.35;6.65;;;21.10;97.20;;;;;;1714739;28;20197;-74
2022/05/04 09:31:18;;;;;;;7.63;6.95;;;21.10;97.20;;;;;;1714994;28;20263;-73
2022/05/04 09:32:14;;;;;;;7.80;7.05;;;21.10;97.20;;;;;;1714823;28;20237;-74
2022/05/04 09:33:09;;;;;;;7.38;6.78;;;21.10;97.20;;;;;;1714904;28;20297;-74
2022/05/04 09:34:02;;;;;;;7.60;7.00;;;21.10;97.20;;;;;;1714803;28;20692;-73
2022/05/04 09:34:54;;;;;;;7.80;7.10;;;21.10;97.20;;;;;;1714890;28;20740;-74
2022/05/04 09:35:46;;;;;;;8.05;7.25;;;21.10;97.20;;;;;;1714913;28;20688;-74
2022/05/04 09:44:53;;;;;;;9.00;7.90;;;21.20;97.20;;;;;;1714889;28;20285;-73
2022/05/04 09:44:57;;;;;;;7.38;6.28;;;22.00;97.20;;;;;;1715004;28;20205;-73
2022/05/04 09:45:52;;;;;;;7.05;6.35;;;22.00;97.20;;;;;;1714860;28;20202;-74
2022/05/04 09:46:46;;;;;;;7.13;6.53;;;22.10;97.20;;;;;;1714847;28;20590;-74
2022/05/04 09:47:38;;;;;;;7.63;6.20;;;22.20;97.20;;;;;;1714828;28;20235;-74
2022/05/04 09:48:30;;;;;;;7.38;6.68;;;22.30;97.20;;;;;;1714475;28;20301;-74
2022/05/04 09:49:23;;;;;;;6.82;6.30;;;22.40;97.20;;;;;;1714764;28;20206;-74
2022/05/04 09:50:16;;;;;;;6.93;6.18;;;22.50;97.20;;;;;;1714622;28;20209;-73
2022/05/04 09:51:09;;;;;;;7.10;6.40;;;22.60;97.20;;;;;;1714867;28;20282;-73
2022/05/04 09:52:04;;;;;;;6.63;6.10;;;22.70;97.20;;;;;;1714420;28;20660;-74